Terminal Aerodrome Forecast
Issued by NWS

Home | Current Version | Previous Version | Text Only | Print | Product List | Glossary On
Versions: 1 2 3 4 5 6 7 8 9 10 11 12
000
FTUS42 TJSJ 251739
TAFISX
TAF
TISX 251739Z 2518/2618 11020G26KT P6SM SCT035
     FM252200 06010KT P6SM VCSH SCT022 BKN060
     FM261300 10016KT P6SM SCT025=

USA.gov is the U.S. government's official web portal to all federal, state and local government web resources and services.